createdAt,value
2019-01-27T00:00:24.259Z,984.5
2019-01-27T00:01:26.387Z,984.5
2019-01-27T00:02:28.797Z,984.5
2019-01-27T00:03:30.914Z,984.4
2019-01-27T00:04:33.036Z,984.4
2019-01-27T00:05:35.149Z,984.4
2019-01-27T00:06:37.286Z,984.4
2019-01-27T00:07:39.397Z,984.4
2019-01-27T00:08:41.826Z,984.4
2019-01-27T00:09:43.990Z,984.3
2019-01-27T00:10:46.096Z,984.3
2019-01-27T00:11:48.811Z,984.3
2019-01-27T00:12:50.936Z,984.3
2019-01-27T00:13:53.050Z,984.3
2019-01-27T00:14:55.535Z,984.3
2019-01-27T00:15:57.659Z,984.3
2019-01-27T00:16:59.758Z,984.2
2019-01-27T00:18:01.888Z,984.2
2019-01-27T00:19:04.482Z,984.2
2019-01-27T00:20:07.165Z,984.1
2019-01-27T00:21:09.296Z,984.2
2019-01-27T00:22:11.413Z,984.2
2019-01-27T00:23:13.537Z,984.2
2019-01-27T00:24:15.662Z,984.2
2019-01-27T00:25:17.781Z,984.1
2019-01-27T00:26:19.884Z,984.1
2019-01-27T00:27:21.998Z,984.1
2019-01-27T00:28:24.116Z,984
2019-01-27T00:29:26.622Z,984
2019-01-27T00:30:28.730Z,984.1
2019-01-27T00:31:30.861Z,984
2019-01-27T00:32:32.973Z,984
2019-01-27T00:33:35.070Z,984
2019-01-27T00:34:37.200Z,984
2019-01-27T00:35:39.288Z,983.9
2019-01-27T00:36:41.404Z,983.8
2019-01-27T00:37:43.934Z,983.9
2019-01-27T00:38:46.058Z,983.8
2019-01-27T00:39:48.448Z,983.8
2019-01-27T00:40:50.864Z,983.8
2019-01-27T00:41:52.976Z,983.8
2019-01-27T00:42:55.126Z,983.7
2019-01-27T00:43:57.488Z,983.7
2019-01-27T00:45:00.184Z,983.7
2019-01-27T00:46:02.317Z,983.7
2019-01-27T00:47:04.816Z,983.7
2019-01-27T00:48:06.911Z,983.7
2019-01-27T00:49:09.032Z,983.7
2019-01-27T00:50:11.146Z,983.6
2019-01-27T00:51:13.253Z,983.6
2019-01-27T00:52:15.383Z,983.6
2019-01-27T00:53:17.494Z,983.6
2019-01-27T00:54:19.607Z,983.5
2019-01-27T00:55:22.005Z,983.5
2019-01-27T00:56:24.113Z,983.5
2019-01-27T00:57:26.213Z,983.5
2019-01-27T00:58:28.640Z,983.5
2019-01-27T00:59:30.736Z,983.5
2019-01-27T01:00:32.843Z,983.5
2019-01-27T01:01:35.559Z,983.5
2019-01-27T01:02:37.952Z,983.5
2019-01-27T01:03:40.059Z,983.5
2019-01-27T01:04:42.204Z,983.5
2019-01-27T01:05:44.308Z,983.4
2019-01-27T01:06:46.699Z,983.4
2019-01-27T01:07:49.140Z,983.4
2019-01-27T01:08:51.693Z,983.3
2019-01-27T01:09:53.895Z,983.3
2019-01-27T01:10:55.996Z,983.4
2019-01-27T01:11:58.110Z,983.3
2019-01-27T01:13:00.213Z,983.4
2019-01-27T01:14:02.889Z,983.3
2019-01-27T01:15:05.003Z,983.3
2019-01-27T01:16:07.102Z,983.3
2019-01-27T01:17:09.232Z,983.4
2019-01-27T01:18:11.627Z,983.3
2019-01-27T01:19:13.736Z,983.3
2019-01-27T01:20:15.843Z,983.3
2019-01-27T01:21:17.977Z,983.2
2019-01-27T01:22:20.077Z,983.3
2019-01-27T01:23:22.191Z,983.3
2019-01-27T01:24:24.686Z,983.2
2019-01-27T01:25:26.779Z,983.2
2019-01-27T01:26:28.903Z,983.1
2019-01-27T01:27:31.018Z,983.1
2019-01-27T01:28:33.120Z,983.2
2019-01-27T01:29:35.246Z,983.2
2019-01-27T01:30:37.373Z,983.2
2019-01-27T01:31:39.473Z,983.1
2019-01-27T01:32:41.594Z,983.1
2019-01-27T01:33:43.714Z,983.1
2019-01-27T01:34:45.828Z,983
2019-01-27T01:35:48.128Z,983
2019-01-27T01:36:50.638Z,983
2019-01-27T01:37:53.038Z,983
2019-01-27T01:38:55.156Z,983
2019-01-27T01:39:57.286Z,983
2019-01-27T01:40:59.385Z,983
2019-01-27T01:42:01.505Z,983
2019-01-27T01:43:03.612Z,983
2019-01-27T01:44:05.721Z,982.9
2019-01-27T01:45:07.821Z,983
2019-01-27T01:46:10.222Z,982.9
2019-01-27T01:47:12.604Z,982.9
2019-01-27T01:48:14.710Z,982.9
2019-01-27T01:49:16.834Z,982.8
2019-01-27T01:50:19.315Z,982.8
2019-01-27T01:51:21.431Z,982.8
2019-01-27T01:52:23.539Z,982.7
2019-01-27T01:53:25.952Z,982.7
2019-01-27T01:54:28.043Z,982.7
2019-01-27T01:55:30.162Z,982.6
2019-01-27T01:56:32.273Z,982.6
2019-01-27T01:57:34.375Z,982.7
2019-01-27T01:58:36.492Z,982.7
2019-01-27T01:59:38.603Z,982.6
2019-01-27T02:00:40.711Z,982.6
2019-01-27T02:01:42.813Z,982.6
2019-01-27T02:02:44.920Z,982.5
2019-01-27T02:03:47.042Z,982.6
2019-01-27T02:04:49.143Z,982.5
2019-01-27T02:05:51.265Z,982.5
2019-01-27T02:06:53.373Z,982.5
2019-01-27T02:07:55.471Z,982.4
2019-01-27T02:08:57.574Z,982.4
2019-01-27T02:09:59.689Z,982.5
2019-01-27T02:11:02.203Z,982.3
2019-01-27T02:12:04.598Z,982.3
2019-01-27T02:13:06.713Z,982.3
2019-01-27T02:14:08.813Z,982.3
2019-01-27T02:15:10.944Z,982.2
2019-01-27T02:16:13.046Z,982.3
2019-01-27T02:17:15.204Z,982.2
2019-01-27T02:18:17.717Z,982.2
2019-01-27T02:19:19.879Z,982.2
2019-01-27T02:20:22.265Z,982.1
2019-01-27T02:21:24.370Z,982.1
2019-01-27T02:22:26.488Z,982.1
2019-01-27T02:23:28.574Z,982.1
2019-01-27T02:24:30.702Z,982
2019-01-27T02:25:32.812Z,982.1
2019-01-27T02:26:34.922Z,982.1
2019-01-27T02:27:37.016Z,982
2019-01-27T02:28:39.138Z,982
2019-01-27T02:29:41.529Z,981.9
2019-01-27T02:30:43.638Z,981.9
2019-01-27T02:31:45.772Z,981.9
2019-01-27T02:32:47.878Z,982
2019-01-27T02:33:50.274Z,981.9
2019-01-27T02:34:52.389Z,981.9
2019-01-27T02:35:54.792Z,982
2019-01-27T02:36:57.208Z,981.7
2019-01-27T02:37:59.344Z,981.8
2019-01-27T02:39:01.726Z,981.8
2019-01-27T02:40:03.843Z,981.7
2019-01-27T02:41:05.966Z,981.8
2019-01-27T02:42:08.471Z,981.8
2019-01-27T02:43:11.135Z,981.7
2019-01-27T02:44:13.256Z,981.7
2019-01-27T02:45:15.407Z,981.6
2019-01-27T02:46:17.820Z,981.6
2019-01-27T02:47:20.223Z,981.6
2019-01-27T02:48:22.320Z,981.6
2019-01-27T02:49:24.438Z,981.5
2019-01-27T02:50:26.579Z,981.6
2019-01-27T02:51:28.713Z,981.5
2019-01-27T02:52:31.210Z,981.4
2019-01-27T02:53:33.357Z,981.5
2019-01-27T02:54:35.793Z,981.5
2019-01-27T02:55:38.482Z,981.4
2019-01-27T02:56:40.622Z,981.5
2019-01-27T02:57:42.720Z,981.4
2019-01-27T02:58:45.229Z,981.5
2019-01-27T02:59:47.344Z,981.4
2019-01-27T03:00:49.747Z,981.4
2019-01-27T03:01:52.526Z,981.4
2019-01-27T03:02:54.652Z,981.4
2019-01-27T03:03:56.778Z,981.4
2019-01-27T03:04:58.879Z,981.3
2019-01-27T03:06:00.989Z,981.3
2019-01-27T03:07:03.152Z,981.3
2019-01-27T03:08:05.537Z,981.3
2019-01-27T03:09:07.932Z,981.3
2019-01-27T03:10:10.061Z,981.2
2019-01-27T03:11:12.169Z,981.2
2019-01-27T03:12:14.292Z,981.3
2019-01-27T03:13:16.410Z,981.2
2019-01-27T03:14:18.512Z,981.2
2019-01-27T03:15:20.938Z,981.2
2019-01-27T03:16:23.043Z,981.2
2019-01-27T03:17:25.563Z,981.1
2019-01-27T03:18:27.673Z,981.1
2019-01-27T03:19:29.813Z,981.1
2019-01-27T03:20:31.943Z,981.1
2019-01-27T03:21:34.440Z,981
2019-01-27T03:22:36.557Z,981
2019-01-27T03:23:38.685Z,980.9
2019-01-27T03:24:41.126Z,980.9
2019-01-27T03:25:43.226Z,980.8
2019-01-27T03:26:45.359Z,980.8
2019-01-27T03:27:47.773Z,980.7
2019-01-27T03:28:49.885Z,980.7
2019-01-27T03:29:52.006Z,980.7
2019-01-27T03:30:54.111Z,980.7
2019-01-27T03:31:56.808Z,980.7
2019-01-27T03:32:59.282Z,980.7
2019-01-27T03:34:02.404Z,980.7
2019-01-27T03:35:04.504Z,980.7
2019-01-27T03:36:06.619Z,980.7
2019-01-27T03:37:08.739Z,980.7
2019-01-27T03:38:10.891Z,980.7
2019-01-27T03:39:13.283Z,980.7
2019-01-27T03:40:15.407Z,980.7
2019-01-27T03:41:17.519Z,980.6
2019-01-27T03:42:19.627Z,980.6
2019-01-27T03:43:21.754Z,980.6
2019-01-27T03:44:24.143Z,980.6
2019-01-27T03:45:26.290Z,980.6
2019-01-27T03:46:28.411Z,980.5
2019-01-27T03:47:30.530Z,980.6
2019-01-27T03:48:32.642Z,980.5
2019-01-27T03:49:34.766Z,980.5
2019-01-27T03:50:36.914Z,980.5
2019-01-27T03:51:39.040Z,980.5
2019-01-27T03:52:41.165Z,980.5
2019-01-27T03:53:43.276Z,980.5
2019-01-27T03:54:45.365Z,980.4
2019-01-27T03:55:47.485Z,980.4
2019-01-27T03:56:49.903Z,980.4
2019-01-27T03:57:52.027Z,980.4
2019-01-27T03:58:54.118Z,980.4
2019-01-27T03:59:56.256Z,980.3
2019-01-27T04:00:58.368Z,980.3
2019-01-27T04:02:00.469Z,980.3
2019-01-27T04:03:02.614Z,980.3
2019-01-27T04:04:04.727Z,980.2
2019-01-27T04:05:07.141Z,980.3
2019-01-27T04:06:09.286Z,980.2
2019-01-27T04:07:11.701Z,980.2
2019-01-27T04:08:13.826Z,980.2
2019-01-27T04:09:15.967Z,980.2
2019-01-27T04:10:18.091Z,980.2
2019-01-27T04:11:20.574Z,980.1
2019-01-27T04:12:22.715Z,980.1
2019-01-27T04:13:24.853Z,980.1
2019-01-27T04:14:27.342Z,980.1
2019-01-27T04:15:29.459Z,980
2019-01-27T04:16:31.614Z,980.1
2019-01-27T04:17:34.020Z,980
2019-01-27T04:18:36.153Z,980
2019-01-27T04:19:38.262Z,980
2019-01-27T04:20:40.663Z,979.9
2019-01-27T04:21:42.768Z,979.9
2019-01-27T04:22:44.894Z,979.9
2019-01-27T04:23:47.275Z,979.9
2019-01-27T04:24:49.395Z,979.9
2019-01-27T04:25:51.507Z,979.8
2019-01-27T04:26:54.198Z,979.8
2019-01-27T04:27:56.614Z,979.9
2019-01-27T04:28:59.589Z,979.8
2019-01-27T04:30:02.027Z,979.8
2019-01-27T04:31:04.520Z,979.8
2019-01-27T04:32:06.644Z,979.8
2019-01-27T04:33:09.067Z,979.7
2019-01-27T04:34:11.194Z,979.7
2019-01-27T04:35:13.586Z,979.7
2019-01-27T04:36:15.712Z,979.7
2019-01-27T04:37:17.829Z,979.7
2019-01-27T04:38:19.942Z,979.7
2019-01-27T04:39:22.064Z,979.7
2019-01-27T04:40:24.215Z,979.7
2019-01-27T04:41:26.332Z,979.7
2019-01-27T04:42:28.447Z,979.7
2019-01-27T04:43:30.604Z,979.6
2019-01-27T04:44:32.725Z,979.8
2019-01-27T04:45:34.860Z,979.6
2019-01-27T04:46:37.260Z,979.6
2019-01-27T04:47:39.365Z,979.7
2019-01-27T04:48:41.464Z,979.7
2019-01-27T04:49:43.987Z,979.7
2019-01-27T04:50:46.098Z,979.6
2019-01-27T04:51:48.239Z,979.6
2019-01-27T04:52:50.371Z,979.6
2019-01-27T04:53:52.560Z,979.6
2019-01-27T04:54:55.064Z,979.6
2019-01-27T04:55:57.188Z,979.6
2019-01-27T04:56:59.275Z,979.6
2019-01-27T04:58:01.684Z,979.6
2019-01-27T04:59:03.809Z,979.5
2019-01-27T05:00:06.190Z,979.5
2019-01-27T05:01:08.320Z,979.5
2019-01-27T05:02:10.425Z,979.4
2019-01-27T05:03:12.535Z,979.5
2019-01-27T05:04:16.411Z,979.5
2019-01-27T05:05:19.005Z,979.5
2019-01-27T05:06:21.109Z,979.5
2019-01-27T05:07:23.221Z,979.5
2019-01-27T05:08:25.737Z,979.4
2019-01-27T05:09:28.219Z,979.5
2019-01-27T05:10:30.349Z,979.4
2019-01-27T05:11:32.753Z,979.3
2019-01-27T05:12:35.166Z,979.4
2019-01-27T05:13:37.252Z,979.3
2019-01-27T05:14:39.666Z,979.4
2019-01-27T05:15:42.066Z,979.3
2019-01-27T05:16:44.494Z,979.3
2019-01-27T05:17:46.631Z,979.2
2019-01-27T05:18:48.728Z,979.3
2019-01-27T05:19:51.255Z,979.2
2019-01-27T05:20:53.661Z,979.2
2019-01-27T05:21:55.827Z,979.1
2019-01-27T05:22:57.932Z,979.2
2019-01-27T05:24:00.043Z,979.2
2019-01-27T05:25:02.140Z,979.2
2019-01-27T05:26:04.258Z,979.2
2019-01-27T05:27:06.772Z,979.2
2019-01-27T05:28:08.884Z,979.2
2019-01-27T05:29:11.666Z,979.1
2019-01-27T05:30:14.082Z,979.1
2019-01-27T05:31:16.188Z,979.1
2019-01-27T05:32:18.293Z,979.1
2019-01-27T05:33:20.697Z,979.1
2019-01-27T05:34:23.098Z,979.1
2019-01-27T05:35:25.208Z,979.1
2019-01-27T05:36:27.327Z,979.1
2019-01-27T05:37:29.470Z,979.1
2019-01-27T05:38:31.568Z,979.1
2019-01-27T05:39:33.686Z,979
2019-01-27T05:40:35.789Z,979.1
2019-01-27T05:41:37.900Z,979.1
2019-01-27T05:42:40.020Z,979.1
2019-01-27T05:43:42.113Z,979
2019-01-27T05:44:44.220Z,979
2019-01-27T05:45:46.332Z,979
2019-01-27T05:46:48.477Z,979
2019-01-27T05:47:50.884Z,979
2019-01-27T05:48:52.995Z,979
2019-01-27T05:49:55.102Z,979
2019-01-27T05:50:57.231Z,979.1
2019-01-27T05:51:59.994Z,979
2019-01-27T05:53:02.786Z,978.9
2019-01-27T05:54:04.908Z,979
2019-01-27T05:55:07.406Z,978.9
2019-01-27T05:56:09.914Z,978.9
2019-01-27T05:57:12.423Z,979
2019-01-27T05:58:14.524Z,979
2019-01-27T05:59:16.637Z,978.9
2019-01-27T06:00:18.760Z,978.8
2019-01-27T06:01:20.873Z,978.9
2019-01-27T06:02:23.375Z,978.8
2019-01-27T06:03:25.781Z,978.9
2019-01-27T06:04:28.282Z,978.9
2019-01-27T06:05:30.418Z,978.9
2019-01-27T06:06:33.265Z,978.8
2019-01-27T06:07:35.369Z,978.9
2019-01-27T06:08:37.486Z,978.8
2019-01-27T06:09:39.591Z,978.8
2019-01-27T06:10:41.991Z,978.8
2019-01-27T06:11:44.086Z,978.7
2019-01-27T06:12:46.542Z,978.7
2019-01-27T06:13:48.654Z,978.8
2019-01-27T06:14:50.754Z,978.7
2019-01-27T06:15:52.882Z,978.7
2019-01-27T06:16:55.279Z,978.7
2019-01-27T06:17:57.392Z,978.7
2019-01-27T06:18:59.563Z,978.7
2019-01-27T06:20:01.974Z,978.7
2019-01-27T06:21:04.114Z,978.6
2019-01-27T06:22:06.531Z,978.7
2019-01-27T06:23:08.652Z,978.7
2019-01-27T06:24:10.756Z,978.6
2019-01-27T06:25:13.571Z,978.6
2019-01-27T06:26:17.019Z,978.6
2019-01-27T06:27:19.159Z,978.5
2019-01-27T06:28:21.582Z,978.5
2019-01-27T06:29:23.684Z,978.6
2019-01-27T06:30:25.851Z,978.5
2019-01-27T06:31:28.229Z,978.5
2019-01-27T06:32:30.337Z,978.5
2019-01-27T06:33:32.858Z,978.4
2019-01-27T06:34:34.967Z,978.4
2019-01-27T06:35:37.366Z,978.4
2019-01-27T06:36:39.494Z,978.4
2019-01-27T06:37:41.988Z,978.4
2019-01-27T06:38:44.091Z,978.4
2019-01-27T06:39:46.209Z,978.4
2019-01-27T06:40:48.308Z,978.4
2019-01-27T06:41:50.420Z,978.3
2019-01-27T06:42:52.540Z,978.4
2019-01-27T06:43:54.937Z,978.4
2019-01-27T06:44:57.033Z,978.4
2019-01-27T06:45:59.160Z,978.4
2019-01-27T06:47:01.268Z,978.4
2019-01-27T06:48:03.930Z,978.3
2019-01-27T06:49:06.055Z,978.3
2019-01-27T06:50:08.170Z,978.3
2019-01-27T06:51:10.278Z,978.4
2019-01-27T06:52:12.777Z,978.3
2019-01-27T06:53:15.177Z,978.3
2019-01-27T06:54:17.283Z,978.3
2019-01-27T06:55:19.793Z,978.3
2019-01-27T06:56:21.918Z,978.2
2019-01-27T06:57:24.017Z,978.3
2019-01-27T06:58:26.143Z,978.3
2019-01-27T06:59:28.549Z,978.2
2019-01-27T07:00:30.691Z,978.1
2019-01-27T07:01:32.805Z,978.2
2019-01-27T07:02:34.929Z,978.2
2019-01-27T07:03:37.047Z,978.2
2019-01-27T07:04:39.446Z,978.2
2019-01-27T07:05:41.553Z,978.2
2019-01-27T07:06:43.685Z,978.3
2019-01-27T07:07:45.794Z,978.2
2019-01-27T07:08:48.187Z,978.2
2019-01-27T07:09:50.304Z,978.1
2019-01-27T07:10:52.423Z,978.2
2019-01-27T07:11:54.524Z,978.1
2019-01-27T07:12:56.952Z,978.2
2019-01-27T07:13:59.433Z,978.1
2019-01-27T07:15:01.944Z,978.1
2019-01-27T07:16:04.722Z,978
2019-01-27T07:17:06.843Z,978
2019-01-27T07:18:08.938Z,978
2019-01-27T07:19:11.067Z,978
2019-01-27T07:20:13.180Z,978
2019-01-27T07:21:15.284Z,978
2019-01-27T07:22:17.716Z,978
2019-01-27T07:23:19.818Z,978
2019-01-27T07:24:21.921Z,978
2019-01-27T07:25:24.024Z,977.9
2019-01-27T07:26:26.151Z,977.9
2019-01-27T07:27:28.248Z,978
2019-01-27T07:28:30.369Z,977.9
2019-01-27T07:29:32.476Z,977.9
2019-01-27T07:30:34.609Z,977.9
2019-01-27T07:31:36.737Z,977.9
2019-01-27T07:32:38.852Z,977.9
2019-01-27T07:33:41.000Z,977.8
2019-01-27T07:34:43.111Z,977.8
2019-01-27T07:35:45.226Z,977.8
2019-01-27T07:36:47.335Z,977.8
2019-01-27T07:37:49.454Z,977.7
2019-01-27T07:38:51.564Z,977.8
2019-01-27T07:39:54.096Z,977.7
2019-01-27T07:40:56.223Z,977.8
2019-01-27T07:41:58.335Z,977.8
2019-01-27T07:43:00.452Z,977.8
2019-01-27T07:44:02.582Z,977.7
2019-01-27T07:45:04.700Z,977.7
2019-01-27T07:46:06.816Z,977.7
2019-01-27T07:47:09.522Z,977.7
2019-01-27T07:48:11.624Z,977.7
2019-01-27T07:49:14.017Z,977.7
2019-01-27T07:50:16.116Z,977.6
2019-01-27T07:51:18.247Z,977.6
2019-01-27T07:52:20.353Z,977.6
2019-01-27T07:53:22.752Z,977.6
2019-01-27T07:54:24.893Z,977.6
2019-01-27T07:55:26.991Z,977.6
2019-01-27T07:56:29.128Z,977.6
2019-01-27T07:57:31.270Z,977.6
2019-01-27T07:58:33.664Z,977.6
2019-01-27T07:59:35.760Z,977.6
2019-01-27T08:00:37.878Z,977.6
2019-01-27T08:01:39.978Z,977.6
2019-01-27T08:02:42.080Z,977.6
2019-01-27T08:03:44.208Z,977.6
2019-01-27T08:04:46.306Z,977.5
2019-01-27T08:05:48.438Z,977.5
2019-01-27T08:06:50.943Z,977.6
2019-01-27T08:07:53.052Z,977.5
2019-01-27T08:08:55.458Z,977.4
2019-01-27T08:09:57.856Z,977.5
2019-01-27T08:11:00.236Z,977.5
2019-01-27T08:12:02.345Z,977.4
2019-01-27T08:13:04.469Z,977.4
2019-01-27T08:14:06.586Z,977.3
2019-01-27T08:15:08.683Z,977.3
2019-01-27T08:16:10.803Z,977.3
2019-01-27T08:17:12.903Z,977.3
2019-01-27T08:18:15.003Z,977.4
2019-01-27T08:19:17.132Z,977.4
2019-01-27T08:20:19.303Z,977.3
2019-01-27T08:21:21.413Z,977.3
2019-01-27T08:22:23.514Z,977.3
2019-01-27T08:23:25.624Z,977.3
2019-01-27T08:24:28.028Z,977.2
2019-01-27T08:25:30.122Z,977.2
2019-01-27T08:26:32.241Z,977.2
2019-01-27T08:27:34.352Z,977.3
2019-01-27T08:28:36.724Z,977.3
2019-01-27T08:29:38.839Z,977.3
2019-01-27T08:30:40.949Z,977.3
2019-01-27T08:31:43.100Z,977.3
2019-01-27T08:32:45.192Z,977.3
2019-01-27T08:33:47.314Z,977.2
2019-01-27T08:34:49.463Z,977.3
2019-01-27T08:35:51.964Z,977.2
2019-01-27T08:36:54.089Z,977.2
2019-01-27T08:37:56.197Z,977.2
2019-01-27T08:38:58.311Z,977.1
2019-01-27T08:40:00.479Z,977.2
2019-01-27T08:41:02.888Z,977.1
2019-01-27T08:42:05.029Z,977.1
2019-01-27T08:43:07.536Z,977.2
2019-01-27T08:44:09.672Z,977.2
2019-01-27T08:45:11.792Z,977.1
2019-01-27T08:46:13.932Z,977.2
2019-01-27T08:47:16.039Z,977.1
2019-01-27T08:48:18.137Z,977.1
2019-01-27T08:49:20.267Z,977.1
2019-01-27T08:50:22.373Z,977.1
2019-01-27T08:51:24.478Z,977
2019-01-27T08:52:26.599Z,977
2019-01-27T08:53:28.715Z,977
2019-01-27T08:54:30.827Z,977
2019-01-27T08:55:33.268Z,977
2019-01-27T08:56:35.381Z,977
2019-01-27T08:57:37.772Z,977
2019-01-27T08:58:39.875Z,977
2019-01-27T08:59:42.264Z,977
2019-01-27T09:00:44.393Z,977
2019-01-27T09:01:46.487Z,976.9
2019-01-27T09:02:48.603Z,977
2019-01-27T09:03:50.721Z,977
2019-01-27T09:04:52.839Z,976.9
2019-01-27T09:05:54.944Z,977
2019-01-27T09:06:57.349Z,976.9
2019-01-27T09:07:59.454Z,976.9
2019-01-27T09:09:01.565Z,976.9
2019-01-27T09:10:03.701Z,976.9
2019-01-27T09:11:06.094Z,976.9
2019-01-27T09:12:08.491Z,976.9
2019-01-27T09:13:11.644Z,976.8
2019-01-27T09:14:13.757Z,976.8
2019-01-27T09:15:15.859Z,976.9
2019-01-27T09:16:18.701Z,976.8
2019-01-27T09:17:21.078Z,976.9
2019-01-27T09:18:23.200Z,976.8
2019-01-27T09:19:25.628Z,976.8
2019-01-27T09:20:27.734Z,976.9
2019-01-27T09:21:29.834Z,976.9
2019-01-27T09:22:31.952Z,976.8
2019-01-27T09:23:34.376Z,976.8
2019-01-27T09:24:36.481Z,976.8
2019-01-27T09:25:38.600Z,976.8
2019-01-27T09:26:40.690Z,976.8
2019-01-27T09:27:42.806Z,976.8
2019-01-27T09:28:44.913Z,976.8
2019-01-27T09:29:47.040Z,976.9
2019-01-27T09:30:49.192Z,976.9
2019-01-27T09:31:51.322Z,976.9
2019-01-27T09:32:53.446Z,976.9
2019-01-27T09:33:55.555Z,976.8
2019-01-27T09:34:57.975Z,976.8
2019-01-27T09:36:00.099Z,976.8
2019-01-27T09:37:02.493Z,976.8
2019-01-27T09:38:04.609Z,976.8
2019-01-27T09:39:06.706Z,976.8
2019-01-27T09:40:08.831Z,976.8
2019-01-27T09:41:11.228Z,976.8
2019-01-27T09:42:13.336Z,976.8
2019-01-27T09:43:15.456Z,976.7
2019-01-27T09:44:17.559Z,976.8
2019-01-27T09:45:19.675Z,977
2019-01-27T09:46:21.808Z,976.8
2019-01-27T09:47:24.319Z,976.8
2019-01-27T09:48:26.418Z,976.8
2019-01-27T09:49:28.549Z,976.8
2019-01-27T09:50:30.657Z,976.9
2019-01-27T09:51:32.806Z,976.8
2019-01-27T09:52:35.220Z,976.8
2019-01-27T09:53:37.335Z,976.8
2019-01-27T09:54:39.457Z,976.8
2019-01-27T09:55:41.583Z,976.7
2019-01-27T09:56:45.158Z,976.7
2019-01-27T09:57:47.274Z,976.7
2019-01-27T09:58:49.677Z,976.8
2019-01-27T09:59:51.775Z,976.7
2019-01-27T10:00:54.176Z,976.8
2019-01-27T10:01:56.294Z,976.8
2019-01-27T10:02:58.714Z,976.7
2019-01-27T10:04:00.822Z,976.7
2019-01-27T10:05:02.946Z,976.7
2019-01-27T10:06:05.071Z,976.7
2019-01-27T10:07:07.176Z,976.7
2019-01-27T10:08:09.693Z,976.6
2019-01-27T10:09:12.082Z,976.6
2019-01-27T10:10:14.195Z,976.7
2019-01-27T10:11:16.310Z,976.6
2019-01-27T10:12:18.443Z,976.6
2019-01-27T10:13:20.540Z,976.5
2019-01-27T10:14:22.700Z,976.5
2019-01-27T10:15:24.824Z,976.6
2019-01-27T10:16:26.934Z,976.5
2019-01-27T10:17:29.062Z,976.5
2019-01-27T10:18:31.169Z,976.5
2019-01-27T10:19:33.270Z,976.5
2019-01-27T10:20:35.374Z,976.5
2019-01-27T10:21:37.497Z,976.5
2019-01-27T10:22:39.617Z,976.5
2019-01-27T10:23:41.738Z,976.5
2019-01-27T10:24:44.257Z,976.5
2019-01-27T10:25:46.361Z,976.5
2019-01-27T10:26:48.490Z,976.5
2019-01-27T10:27:50.639Z,976.4
2019-01-27T10:28:52.734Z,976.4
2019-01-27T10:29:54.860Z,976.4
2019-01-27T10:30:56.983Z,976.4
2019-01-27T10:31:59.085Z,976.4
2019-01-27T10:33:01.212Z,976.4
2019-01-27T10:34:03.339Z,976.4
2019-01-27T10:35:05.464Z,976.4
2019-01-27T10:36:07.566Z,976.3
2019-01-27T10:37:12.589Z,976.3
2019-01-27T10:38:14.999Z,976.3
2019-01-27T10:39:17.105Z,976.3
2019-01-27T10:40:19.238Z,976.3
2019-01-27T10:41:21.728Z,976.2
2019-01-27T10:42:24.131Z,976.2
2019-01-27T10:43:26.245Z,976.2
2019-01-27T10:44:28.362Z,976.1
2019-01-27T10:45:30.456Z,976.1
2019-01-27T10:46:32.584Z,976.1
2019-01-27T10:47:34.695Z,976.1
2019-01-27T10:48:36.819Z,976.1
2019-01-27T10:49:38.950Z,976
2019-01-27T10:50:41.066Z,976.1
2019-01-27T10:51:43.568Z,976
2019-01-27T10:52:45.677Z,976
2019-01-27T10:53:47.789Z,976
2019-01-27T10:54:49.913Z,976
2019-01-27T10:55:52.019Z,976
2019-01-27T10:56:54.158Z,976
2019-01-27T10:57:56.268Z,976
2019-01-27T10:58:58.366Z,976
2019-01-27T11:00:00.509Z,975.9
2019-01-27T11:01:02.766Z,975.9
2019-01-27T11:02:04.860Z,976
2019-01-27T11:03:07.262Z,976
2019-01-27T11:04:09.664Z,976
2019-01-27T11:05:11.762Z,975.8
2019-01-27T11:06:13.897Z,975.9
2019-01-27T11:07:16.011Z,975.9
2019-01-27T11:08:18.128Z,975.9
2019-01-27T11:09:20.239Z,975.8
2019-01-27T11:10:22.648Z,975.8
2019-01-27T11:11:24.747Z,975.8
2019-01-27T11:12:27.148Z,975.9
2019-01-27T11:13:29.557Z,975.9
2019-01-27T11:14:31.667Z,975.9
2019-01-27T11:15:33.825Z,975.9
2019-01-27T11:16:35.959Z,975.9
2019-01-27T11:17:38.086Z,975.8
2019-01-27T11:18:40.186Z,975.8
2019-01-27T11:19:42.589Z,975.7
2019-01-27T11:20:45.708Z,975.8
2019-01-27T11:21:47.829Z,975.7
2019-01-27T11:22:49.959Z,975.8
2019-01-27T11:23:52.061Z,975.7
2019-01-27T11:24:54.175Z,975.7
2019-01-27T11:26:01.929Z,975.7
2019-01-27T11:27:04.053Z,975.7
2019-01-27T11:28:06.167Z,975.7
2019-01-27T11:29:08.285Z,975.7
2019-01-27T11:30:10.420Z,975.7
2019-01-27T11:31:12.540Z,975.7
2019-01-27T11:32:14.648Z,975.7
2019-01-27T11:33:16.784Z,975.7
2019-01-27T11:34:18.917Z,975.5
2019-01-27T11:35:21.030Z,975.5
2019-01-27T11:36:23.149Z,975.5
2019-01-27T11:37:25.274Z,975.5
2019-01-27T11:38:27.432Z,975.6
2019-01-27T11:39:29.855Z,975.6
2019-01-27T11:40:32.361Z,975.5
2019-01-27T11:41:34.476Z,975.5
2019-01-27T11:42:36.573Z,975.4
2019-01-27T11:43:38.704Z,975.4
2019-01-27T11:44:41.106Z,975.5
2019-01-27T11:45:43.220Z,975.4
2019-01-27T11:46:45.398Z,975.4
2019-01-27T11:47:47.491Z,975.4
2019-01-27T11:48:49.641Z,975.4
2019-01-27T11:49:51.755Z,975.4
2019-01-27T11:50:53.873Z,975.4
2019-01-27T11:51:55.971Z,975.4
2019-01-27T11:52:58.089Z,975.4
2019-01-27T11:54:00.195Z,975.3
2019-01-27T11:55:02.307Z,975.3
2019-01-27T11:56:04.717Z,975.3
2019-01-27T11:57:06.820Z,975.3
2019-01-27T11:58:08.945Z,975.3
2019-01-27T11:59:11.079Z,975.4
2019-01-27T12:00:13.193Z,975.4
2019-01-27T12:01:15.295Z,975.4
2019-01-27T12:02:17.424Z,975.4
2019-01-27T12:03:19.530Z,975.3
2019-01-27T12:04:21.660Z,975.3
2019-01-27T12:05:23.786Z,975.3
2019-01-27T12:06:25.905Z,975.3
2019-01-27T12:07:28.410Z,975.3
2019-01-27T12:08:30.518Z,975.3
2019-01-27T12:09:32.633Z,975.2
2019-01-27T12:10:34.753Z,975.2
2019-01-27T12:11:36.861Z,975.2
2019-01-27T12:12:39.012Z,975.1
2019-01-27T12:13:41.125Z,975.2
2019-01-27T12:14:43.242Z,975.2
2019-01-27T12:15:45.363Z,975.2
2019-01-27T12:16:47.788Z,975.2
2019-01-27T12:17:49.913Z,975.2
2019-01-27T12:18:52.038Z,975.1
2019-01-27T12:19:54.161Z,975.2
2019-01-27T12:20:56.551Z,975.1
2019-01-27T12:21:58.690Z,975.2
2019-01-27T12:23:01.398Z,975.1
2019-01-27T12:24:03.803Z,975.2
2019-01-27T12:25:06.194Z,975.1
2019-01-27T12:26:08.309Z,975.1
2019-01-27T12:27:10.426Z,975.2
2019-01-27T12:28:12.825Z,975.1
2019-01-27T12:29:15.240Z,975.1
2019-01-27T12:30:17.360Z,975.1
2019-01-27T12:31:19.521Z,975
2019-01-27T12:32:21.638Z,975
2019-01-27T12:33:23.748Z,975
2019-01-27T12:34:25.846Z,975
2019-01-27T12:35:28.257Z,975
2019-01-27T12:36:30.364Z,975
2019-01-27T12:37:32.488Z,975.1
2019-01-27T12:38:34.916Z,975.1
2019-01-27T12:39:37.031Z,975
2019-01-27T12:40:39.139Z,975
2019-01-27T12:41:41.287Z,975.1
2019-01-27T12:42:43.389Z,975
2019-01-27T12:43:45.559Z,975
2019-01-27T12:44:47.704Z,975
2019-01-27T12:45:49.811Z,975
2019-01-27T12:46:51.928Z,975
2019-01-27T12:47:54.054Z,975
2019-01-27T12:48:56.191Z,975
2019-01-27T12:49:58.289Z,974.9
2019-01-27T12:51:00.472Z,974.9
2019-01-27T12:52:02.589Z,974.9
2019-01-27T12:53:04.703Z,974.9
2019-01-27T12:54:08.374Z,974.9
2019-01-27T12:55:10.545Z,974.8
2019-01-27T12:56:12.661Z,974.8
2019-01-27T12:57:14.769Z,974.9
2019-01-27T12:58:17.293Z,974.8
2019-01-27T12:59:19.398Z,974.9
2019-01-27T13:00:23.131Z,974.9
2019-01-27T13:01:25.538Z,974.9
2019-01-27T13:02:27.642Z,974.8
2019-01-27T13:03:29.765Z,974.8
2019-01-27T13:04:32.188Z,974.8
2019-01-27T13:05:34.625Z,974.8
2019-01-27T13:06:36.761Z,974.7
2019-01-27T13:07:38.891Z,974.8
2019-01-27T13:08:41.006Z,974.8
2019-01-27T13:09:43.133Z,974.7
2019-01-27T13:10:45.249Z,974.8
2019-01-27T13:11:47.364Z,974.8
2019-01-27T13:12:49.492Z,974.7
2019-01-27T13:13:51.645Z,974.8
2019-01-27T13:14:53.782Z,974.7
2019-01-27T13:15:55.902Z,974.7
2019-01-27T13:16:58.012Z,974.7
2019-01-27T13:18:00.121Z,974.7
2019-01-27T13:19:02.534Z,974.7
2019-01-27T13:20:04.665Z,974.7
2019-01-27T13:21:08.773Z,974.7
2019-01-27T13:22:12.575Z,974.7
2019-01-27T13:23:15.085Z,974.7
2019-01-27T13:24:17.211Z,974.6
2019-01-27T13:25:19.645Z,974.6
2019-01-27T13:26:22.136Z,974.7
2019-01-27T13:27:24.281Z,974.7